SnowmanRWIS Atmospheric Data: 04/18/2019 Summary  Detailed Graphs  Station List

  Temperature     Wind Precipitation Visibility
Timestamp Air Wet
Bulb
Dew-
point
24-hr
Max
24-hr
Min
Relative
Humidity
Atmospheric
Pressure
Avg
Speed
Avg
Dir
Spot
Speed
Spot
Dir
Max
Speed
Max
Dir
  Rate Situation Start End 1 hr 3 hr 6 hr 12 hr 24 hr   Situation
Date Time °F °F °F °F °F % in Hg mph ° mph ° mph ° Y/N in/hr text Date Time Date Time in in in in in mi text
04/18/2019 12:03 AM 39.56 37.58 34.88 63.68 31.64 82.0 Not Reported 2.24 W 2.46 W 3.58 W No 0.000 No Precipitation 04/16/2019 09:22 AM 04/16/2019 10:50 AM 0.000 0.000 0.000 0.000 0.000 Not Reported Not Reported
04/18/2019 12:08 AM 39.92 37.76 35.06 63.68 31.64 82.0 Not Reported 2.46 W 2.24 W 3.58 W No 0.000 No Precipitation 04/16/2019 09:22 AM 04/16/2019 10:50 AM 0.000 0.000 0.000 0.000 0.000 Not Reported Not Reported
04/18/2019 12:13 AM 40.10 37.94 35.24 63.68 31.64 82.0 Not Reported 2.68 SW 2.01 W 2.68 W No 0.000 No Precipitation 04/16/2019 09:22 AM 04/16/2019 10:50 AM 0.000 0.000 0.000 0.000 0.000 Not Reported Not Reported
04/18/2019 12:18 AM 40.28 37.94 35.06 63.68 31.64 81.0 Not Reported 1.57 SW 1.34 W 2.68 W No 0.000 No Precipitation 04/16/2019 09:22 AM 04/16/2019 10:50 AM 0.000 0.000 0.000 0.000 0.000 Not Reported Not Reported
04/18/2019 12:23 AM 43.34 39.74 35.42 63.68 31.64 73.0 Not Reported 1.34 W 0.45 SW 3.36 SW No 0.000 No Precipitation 04/16/2019 09:22 AM 04/16/2019 10:50 AM 0.000 0.000 0.000 0.000 0.000 Not Reported Not Reported
04/18/2019 12:28 AM 44.60 40.46 35.42 63.68 31.64 70.0 Not Reported 1.57 W 1.12 SW 3.36 SW No 0.000 No Precipitation 04/16/2019 09:22 AM 04/16/2019 10:50 AM 0.000 0.000 0.000 0.000 0.000 Not Reported Not Reported
04/18/2019 12:33 AM 42.98 39.74 35.78 63.68 31.64 75.0 Not Reported 1.34 SW 1.57 SW 2.46 W No 0.000 No Precipitation 04/16/2019 09:22 AM 04/16/2019 10:50 AM 0.000 0.000 0.000 0.000 0.000 Not Reported Not Reported
04/18/2019 12:38 AM 43.16 39.92 36.14 63.68 31.64 76.0 Not Reported 2.01 W 2.68 W 2.46 W No 0.000 No Precipitation 04/16/2019 09:22 AM 04/16/2019 10:50 AM 0.000 0.000 0.000 0.000 0.000 Not Reported Not Reported
04/18/2019 12:43 AM 42.08 39.20 35.42 63.68 31.64 76.0 Not Reported 2.46 W 2.46 W 3.36 W No 0.000 No Precipitation 04/16/2019 09:22 AM 04/16/2019 10:50 AM 0.000 0.000 0.000 0.000 0.000 Not Reported Not Reported
04/18/2019 12:48 AM 40.82 38.12 34.88 63.68 31.64 79.0 Not Reported 2.01 W 1.79 W 3.36 W No 0.000 No Precipitation 04/16/2019 09:22 AM 04/16/2019 10:50 AM 0.000 0.000 0.000 0.000 0.000 Not Reported Not Reported
04/18/2019 12:53 AM 40.28 37.94 34.88 63.68 31.64 80.0 Not Reported 2.01 W 2.46 W 2.91 W No 0.000 No Precipitation 04/16/2019 09:22 AM 04/16/2019 10:50 AM 0.000 0.000 0.000 0.000 0.000 Not Reported Not Reported
04/18/2019 12:58 AM 40.10 37.76 34.88 63.68 31.64 81.0 Not Reported 2.01 W 1.79 W 2.91 W No 0.000 No Precipitation 04/16/2019 09:22 AM 04/16/2019 10:50 AM 0.000 0.000 0.000 0.000 0.000 Not Reported Not Reported
04/18/2019 01:03 AM 39.56 37.76 35.24 63.68 31.64 84.0 Not Reported 0.89 W 0.89 SW 2.68 W No 0.000 No Precipitation 04/16/2019 09:22 AM 04/16/2019 10:50 AM 0.000 0.000 0.000 0.000 0.000 Not Reported Not Reported
04/18/2019 01:08 AM 39.56 37.58 35.06 63.68 31.64 83.0 Not Reported 2.01 SW 1.79 W 2.68 W No 0.000 No Precipitation 04/16/2019 09:22 AM 04/16/2019 10:50 AM 0.000 0.000 0.000 0.000 0.000 Not Reported Not Reported
04/18/2019 01:13 AM 39.56 37.40 34.70 63.68 31.64 82.0 Not Reported 2.01 W 2.24 W 2.01 SW No 0.000 No Precipitation 04/16/2019 09:22 AM 04/16/2019 10:50 AM 0.000 0.000 0.000 0.000 0.000 Not Reported Not Reported
04/18/2019 01:18 AM 38.84 37.04 34.52 63.68 31.64 83.0 Not Reported 2.24 W 2.24 W 2.01 SW No 0.000 No Precipitation 04/16/2019 09:22 AM 04/16/2019 10:50 AM 0.000 0.000 0.000 0.000 0.000 Not Reported Not Reported
04/18/2019 01:23 AM 38.84 37.04 34.52 63.68 31.64 84.0 Not Reported 2.24 W 1.79 W 3.13 SW No 0.000 No Precipitation 04/16/2019 09:22 AM 04/16/2019 10:50 AM 0.000 0.000 0.000 0.000 0.000 Not Reported Not Reported
04/18/2019 01:28 AM 38.66 36.68 34.16 63.68 31.64 83.0 Not Reported 1.34 W 1.34 W 3.13 SW No 0.000 No Precipitation 04/16/2019 09:22 AM 04/16/2019 10:50 AM 0.000 0.000 0.000 0.000 0.000 Not Reported Not Reported
04/18/2019 01:33 AM 38.48 36.68 34.34 63.68 31.64 84.0 Not Reported 1.57 W 1.79 W 2.24 W No 0.000 No Precipitation 04/16/2019 09:22 AM 04/16/2019 10:50 AM 0.000 0.000 0.000 0.000 0.000 Not Reported Not Reported
04/18/2019 01:38 AM 38.66 37.04 34.88 63.68 31.64 86.0 Not Reported 1.79 W 1.57 W 2.24 W No 0.000 No Precipitation 04/16/2019 09:22 AM 04/16/2019 10:50 AM 0.000 0.000 0.000 0.000 0.000 Not Reported Not Reported
04/18/2019 01:43 AM 38.12 36.68 34.52 63.68 31.64 86.0 Not Reported 1.57 W 1.57 W 2.01 W No 0.000 No Precipitation 04/16/2019 09:22 AM 04/16/2019 10:50 AM 0.000 0.000 0.000 0.000 0.000 Not Reported Not Reported
04/18/2019 01:48 AM 38.30 36.86 34.88 63.68 31.64 87.0 Not Reported 0.00 NW 0.00 NW 2.01 W No 0.000 No Precipitation 04/16/2019 09:22 AM 04/16/2019 10:50 AM 0.000 0.000 0.000 0.000 0.000 Not Reported Not Reported
04/18/2019 01:53 AM 37.76 36.14 33.62 63.68 31.64 84.0 Not Reported 0.00 N 0.00 NW 1.57 W No 0.000 No Precipitation 04/16/2019 09:22 AM 04/16/2019 10:50 AM 0.000 0.000 0.000 0.000 0.000 Not Reported Not Reported
04/18/2019 01:58 AM 38.12 36.68 34.70 63.68 31.64 86.0 Not Reported 1.12 W 1.34 W 1.57 W No 0.000 No Precipitation 04/16/2019 09:22 AM 04/16/2019 10:50 AM 0.000 0.000 0.000 0.000 0.000 Not Reported Not Reported
04/18/2019 02:03 AM 37.40 35.78 33.62 63.68 31.64 86.0 Not Reported 0.00 W 0.89 W 1.34 W No 0.000 No Precipitation 04/16/2019 09:22 AM 04/16/2019 10:50 AM 0.000 0.000 0.000 0.000 0.000 Not Reported Not Reported
04/18/2019 02:08 AM 37.40 35.96 34.16 63.68 31.64 87.0 Not Reported 1.79 W 1.34 W 1.34 W No 0.000 No Precipitation 04/16/2019 09:22 AM 04/16/2019 10:50 AM 0.000 0.000 0.000 0.000 0.000 Not Reported Not Reported
04/18/2019 02:13 AM 37.76 36.50 34.70 63.68 31.64 88.0 Not Reported 0.89 W 1.12 W 1.79 W No 0.000 No Precipitation 04/16/2019 09:22 AM 04/16/2019 10:50 AM 0.000 0.000 0.000 0.000 0.000 Not Reported Not Reported
04/18/2019 02:18 AM 37.58 36.14 34.16 63.68 31.64 87.0 Not Reported 0.89 W 0.67 W 1.79 W No 0.000 No Precipitation 04/16/2019 09:22 AM 04/16/2019 10:50 AM 0.000 0.000 0.000 0.000 0.000 Not Reported Not Reported
04/18/2019 02:23 AM 37.40 36.14 34.34 63.68 31.64 88.0 Not Reported 1.12 W 1.34 W 1.34 W No 0.000 No Precipitation 04/16/2019 09:22 AM 04/16/2019 10:50 AM 0.000 0.000 0.000 0.000 0.000 Not Reported Not Reported
04/18/2019 02:28 AM 37.40 36.14 34.34 63.68 31.64 88.0 Not Reported 1.12 W 1.34 W 1.34 W No 0.000 No Precipitation 04/16/2019 09:22 AM 04/16/2019 10:50 AM 0.000 0.000 0.000 0.000 0.000 Not Reported Not Reported
04/18/2019 02:33 AM 37.58 36.32 34.52 63.68 31.64 88.0 Not Reported 2.01 W 2.91 W 1.57 W No 0.000 No Precipitation 04/16/2019 09:22 AM 04/16/2019 10:50 AM 0.000 0.000 0.000 0.000 0.000 Not Reported Not Reported
04/18/2019 02:38 AM 37.40 36.14 34.52 63.68 31.64 89.0 Not Reported 1.79 W 1.79 W 1.57 W No 0.000 No Precipitation 04/16/2019 09:22 AM 04/16/2019 10:50 AM 0.000 0.000 0.000 0.000 0.000 Not Reported Not Reported
04/18/2019 02:43 AM 37.40 36.14 34.34 63.68 31.64 88.0 Not Reported 2.68 W 2.01 W 3.58 W No 0.000 No Precipitation 04/16/2019 09:22 AM 04/16/2019 10:50 AM 0.000 0.000 0.000 0.000 0.000 Not Reported Not Reported
04/18/2019 02:48 AM 37.58 36.32 34.52 63.68 31.64 89.0 Not Reported 2.01 W 2.01 W 3.58 W No 0.000 No Precipitation 04/16/2019 09:22 AM 04/16/2019 10:50 AM 0.000 0.000 0.000 0.000 0.000 Not Reported Not Reported
04/18/2019 02:53 AM 37.76 36.50 34.88 63.68 31.64 88.0 Not Reported 3.13 W 2.01 W 3.58 W No 0.000 No Precipitation 04/16/2019 09:22 AM 04/16/2019 10:50 AM 0.000 0.000 0.000 0.000 0.000 Not Reported Not Reported
04/18/2019 02:58 AM 37.76 36.50 34.70 63.68 31.64 88.0 Not Reported 1.57 W 1.79 W 3.58 W No 0.000 No Precipitation 04/16/2019 09:22 AM 04/16/2019 10:50 AM 0.000 0.000 0.000 0.000 0.000 Not Reported Not Reported
04/18/2019 03:03 AM 37.58 36.32 34.70 63.68 31.64 89.0 Not Reported 1.79 W 1.79 W 3.36 W No 0.000 No Precipitation 04/16/2019 09:22 AM 04/16/2019 10:50 AM 0.000 0.000 0.000 0.000 0.000 Not Reported Not Reported
04/18/2019 03:08 AM 37.40 36.14 34.52 63.68 31.64 89.0 Not Reported 1.57 W 1.79 W 3.36 W No 0.000 No Precipitation 04/16/2019 09:22 AM 04/16/2019 10:50 AM 0.000 0.000 0.000 0.000 0.000 Not Reported Not Reported
04/18/2019 03:13 AM 37.58 36.50 35.24 63.68 31.64 90.0 Not Reported 2.01 W 2.46 W 2.01 W No 0.000 No Precipitation 04/16/2019 09:22 AM 04/16/2019 10:50 AM 0.000 0.000 0.000 0.000 0.000 Not Reported Not Reported
04/18/2019 03:18 AM 37.40 36.14 34.34 63.68 31.64 88.0 Not Reported 1.79 W 1.57 W 2.01 W No 0.000 No Precipitation 04/16/2019 09:22 AM 04/16/2019 10:50 AM 0.000 0.000 0.000 0.000 0.000 Not Reported Not Reported
04/18/2019 03:23 AM 37.22 35.96 34.34 63.68 31.64 89.0 Not Reported 2.01 W 2.24 W 2.68 W No 0.000 No Precipitation 04/16/2019 09:22 AM 04/16/2019 10:50 AM 0.000 0.000 0.000 0.000 0.000 Not Reported Not Reported
04/18/2019 03:28 AM 37.04 35.78 34.16 63.68 31.64 89.0 Not Reported 2.01 W 2.01 W 2.68 W No 0.000 No Precipitation 04/16/2019 09:22 AM 04/16/2019 10:50 AM 0.000 0.000 0.000 0.000 0.000 Not Reported Not Reported
04/18/2019 03:33 AM 37.04 35.96 34.34 63.68 31.64 89.0 Not Reported 1.79 W 1.57 W 2.68 W No 0.000 No Precipitation 04/16/2019 09:22 AM 04/16/2019 10:50 AM 0.000 0.000 0.000 0.000 0.000 Not Reported Not Reported
04/18/2019 03:38 AM 36.86 35.78 34.34 63.68 31.64 90.0 Not Reported 0.45 W 0.89 W 2.68 W No 0.000 No Precipitation 04/16/2019 09:22 AM 04/16/2019 10:50 AM 0.000 0.000 0.000 0.000 0.000 Not Reported Not Reported
04/18/2019 03:43 AM 36.68 35.42 33.80 63.68 31.64 89.0 Not Reported 0.89 W 1.12 W 1.79 W No 0.000 No Precipitation 04/16/2019 09:22 AM 04/16/2019 10:50 AM 0.000 0.000 0.000 0.000 0.000 Not Reported Not Reported
04/18/2019 03:48 AM 36.68 35.60 33.98 63.68 31.64 90.0 Not Reported 0.00 W 0.00 W 1.79 W No 0.000 No Precipitation 04/16/2019 09:22 AM 04/16/2019 10:50 AM 0.000 0.000 0.000 0.000 0.000 Not Reported Not Reported
04/18/2019 03:53 AM 36.50 35.42 33.98 63.68 31.64 90.0 Not Reported 0.00 N 0.00 W 1.12 W No 0.000 No Precipitation 04/16/2019 09:22 AM 04/16/2019 10:50 AM 0.000 0.000 0.000 0.000 0.000 Not Reported Not Reported
04/18/2019 03:58 AM 36.32 35.42 33.80 63.68 31.64 90.0 Not Reported 0.22 W 0.00 W 1.12 W No 0.000 No Precipitation 04/16/2019 09:22 AM 04/16/2019 10:50 AM 0.000 0.000 0.000 0.000 0.000 Not Reported Not Reported
04/18/2019 04:03 AM 36.68 35.60 34.34 63.68 31.64 91.0 Not Reported 0.00 N 0.89 N 0.45 W No 0.000 No Precipitation 04/16/2019 09:22 AM 04/16/2019 10:50 AM 0.000 0.000 0.000 0.000 0.000 Not Reported Not Reported
04/18/2019 04:08 AM 36.86 35.96 34.70 63.68 31.64 91.0 Not Reported 1.34 N 1.12 N 0.45 W No 0.000 No Precipitation 04/16/2019 09:22 AM 04/16/2019 10:50 AM 0.000 0.000 0.000 0.000 0.000 Not Reported Not Reported
04/18/2019 04:13 AM 36.68 35.60 33.98 63.68 31.64 89.0 Not Reported 0.00 N 0.00 N 1.34 N No 0.000 No Precipitation 04/16/2019 09:22 AM 04/16/2019 10:50 AM 0.000 0.000 0.000 0.000 0.000 Not Reported Not Reported
04/18/2019 04:18 AM 36.68 35.42 34.16 63.68 31.64 90.0 Not Reported 0.00 W 0.00 W 1.34 N No 0.000 No Precipitation 04/16/2019 09:22 AM 04/16/2019 10:50 AM 0.000 0.000 0.000 0.000 0.000 Not Reported Not Reported
04/18/2019 04:23 AM 36.32 35.42 33.98 63.68 31.64 90.0 Not Reported 0.67 W 0.00 W 0.00 N No 0.000 No Precipitation 04/16/2019 09:22 AM 04/16/2019 10:50 AM 0.000 0.000 0.000 0.000 0.000 Not Reported Not Reported
04/18/2019 04:28 AM 36.68 35.60 34.34 63.68 31.64 91.0 Not Reported 0.67 W 0.89 W 0.00 N No 0.000 No Precipitation 04/16/2019 09:22 AM 04/16/2019 10:50 AM 0.000 0.000 0.000 0.000 0.000 Not Reported Not Reported
04/18/2019 04:33 AM 36.68 35.60 34.16 63.68 31.64 90.0 Not Reported 0.89 W 1.34 W 0.89 W No 0.000 No Precipitation 04/16/2019 09:22 AM 04/16/2019 10:50 AM 0.000 0.000 0.000 0.000 0.000 Not Reported Not Reported
04/18/2019 04:38 AM 36.50 35.42 33.98 63.68 31.64 90.0 Not Reported 0.67 W 0.67 W 0.89 W No 0.000 No Precipitation 04/16/2019 09:22 AM 04/16/2019 10:50 AM 0.000 0.000 0.000 0.000 0.000 Not Reported Not Reported
04/18/2019 04:43 AM 36.32 35.24 33.80 63.68 31.64 90.0 Not Reported 1.12 W 1.57 W 1.34 W No 0.000 No Precipitation 04/16/2019 09:22 AM 04/16/2019 10:50 AM 0.000 0.000 0.000 0.000 0.000 Not Reported Not Reported
04/18/2019 04:48 AM 36.14 35.06 33.44 63.68 31.64 89.0 Not Reported 1.34 W 0.89 W 1.34 W No 0.000 No Precipitation 04/16/2019 09:22 AM 04/16/2019 10:50 AM 0.000 0.000 0.000 0.000 0.000 Not Reported Not Reported
04/18/2019 04:53 AM 36.14 35.24 33.62 63.68 31.64 90.0 Not Reported 1.12 W 1.12 W 1.79 W No 0.000 No Precipitation 04/16/2019 09:22 AM 04/16/2019 10:50 AM 0.000 0.000 0.000 0.000 0.000 Not Reported Not Reported
04/18/2019 04:58 AM 36.32 35.24 33.80 63.68 31.64 90.0 Not Reported 1.34 W 1.34 W 1.79 W No 0.000 No Precipitation 04/16/2019 09:22 AM 04/16/2019 10:50 AM 0.000 0.000 0.000 0.000 0.000 Not Reported Not Reported
04/18/2019 05:03 AM 36.14 35.06 33.44 63.68 31.64 90.0 Not Reported 1.34 W 0.89 W 1.57 W No 0.000 No Precipitation 04/16/2019 09:22 AM 04/16/2019 10:50 AM 0.000 0.000 0.000 0.000 0.000 Not Reported Not Reported
04/18/2019 05:08 AM 35.96 35.06 33.62 63.68 31.64 90.0 Not Reported 1.57 W 1.34 W 1.57 W No 0.000 No Precipitation 04/16/2019 09:22 AM 04/16/2019 10:50 AM 0.000 0.000 0.000 0.000 0.000 Not Reported Not Reported
04/18/2019 05:13 AM 36.14 35.06 33.62 63.68 31.64 90.0 Not Reported 1.57 W 1.79 W 1.79 W No 0.000 No Precipitation 04/16/2019 09:22 AM 04/16/2019 10:50 AM 0.000 0.000 0.000 0.000 0.000 Not Reported Not Reported
04/18/2019 05:18 AM 36.32 35.24 33.80 63.68 31.64 90.0 Not Reported 1.57 W 1.57 W 1.79 W No 0.000 No Precipitation 04/16/2019 09:22 AM 04/16/2019 10:50 AM 0.000 0.000 0.000 0.000 0.000 Not Reported Not Reported
04/18/2019 05:23 AM 36.14 35.06 33.44 63.68 31.64 90.0 Not Reported 1.79 W 1.79 W 2.01 W No 0.000 No Precipitation 04/16/2019 09:22 AM 04/16/2019 10:50 AM 0.000 0.000 0.000 0.000 0.000 Not Reported Not Reported
04/18/2019 05:28 AM 35.96 34.88 33.26 63.68 31.64 90.0 Not Reported 1.57 W 1.34 W 2.01 W No 0.000 No Precipitation 04/16/2019 09:22 AM 04/16/2019 10:50 AM 0.000 0.000 0.000 0.000 0.000 Not Reported Not Reported
04/18/2019 05:33 AM 36.14 35.24 33.80 63.68 31.64 91.0 Not Reported 1.34 W 1.12 W 2.01 W No 0.000 No Precipitation 04/16/2019 09:22 AM 04/16/2019 10:50 AM 0.000 0.000 0.000 0.000 0.000 Not Reported Not Reported
04/18/2019 05:38 AM 36.14 35.24 33.98 63.68 31.64 91.0 Not Reported 1.12 W 0.89 W 2.01 W No 0.000 No Precipitation 04/16/2019 09:22 AM 04/16/2019 10:50 AM 0.000 0.000 0.000 0.000 0.000 Not Reported Not Reported
04/18/2019 05:43 AM 36.14 35.24 33.80 63.68 31.64 90.0 Not Reported 1.34 W 1.34 W 1.34 W No 0.000 No Precipitation 04/16/2019 09:22 AM 04/16/2019 10:50 AM 0.000 0.000 0.000 0.000 0.000 Not Reported Not Reported
04/18/2019 05:48 AM 36.14 35.06 33.44 63.68 31.64 90.0 Not Reported 1.34 W 1.34 W 1.34 W No 0.000 No Precipitation 04/16/2019 09:22 AM 04/16/2019 10:50 AM 0.000 0.000 0.000 0.000 0.000 Not Reported Not Reported
04/18/2019 05:53 AM 36.32 35.42 34.34 63.68 31.64 91.0 Not Reported 1.12 W 1.34 W 1.57 W No 0.000 No Precipitation 04/16/2019 09:22 AM 04/16/2019 10:50 AM 0.000 0.000 0.000 0.000 0.000 Not Reported Not Reported
04/18/2019 05:58 AM 36.32 35.24 33.62 63.68 31.64 89.0 Not Reported 0.89 W 0.89 W 1.57 W No 0.000 No Precipitation 04/16/2019 09:22 AM 04/16/2019 10:50 AM 0.000 0.000 0.000 0.000 0.000 Not Reported Not Reported
04/18/2019 06:03 AM 35.96 34.88 33.44 63.68 31.64 90.0 Not Reported 0.00 W 0.00 W 1.34 W No 0.000 No Precipitation 04/16/2019 09:22 AM 04/16/2019 10:50 AM 0.000 0.000 0.000 0.000 0.000 Not Reported Not Reported
04/18/2019 06:08 AM 35.78 34.88 33.44 63.68 31.64 90.0 Not Reported 0.22 W 0.00 W 1.34 W No 0.000 No Precipitation 04/16/2019 09:22 AM 04/16/2019 10:50 AM 0.000 0.000 0.000 0.000 0.000 Not Reported Not Reported
04/18/2019 06:13 AM 35.96 35.06 33.62 63.68 31.64 91.0 Not Reported 1.12 W 0.67 W 0.67 W No 0.000 No Precipitation 04/16/2019 09:22 AM 04/16/2019 10:50 AM 0.000 0.000 0.000 0.000 0.000 Not Reported Not Reported
04/18/2019 06:18 AM 36.14 35.24 33.98 63.68 31.64 91.0 Not Reported 0.67 W 0.45 W 0.67 W No 0.000 No Precipitation 04/16/2019 09:22 AM 04/16/2019 10:50 AM 0.000 0.000 0.000 0.000 0.000 Not Reported Not Reported
04/18/2019 06:23 AM 36.32 35.24 33.98 63.68 31.64 91.0 Not Reported 1.12 W 1.34 W 1.34 W No 0.000 No Precipitation 04/16/2019 09:22 AM 04/16/2019 10:50 AM 0.000 0.000 0.000 0.000 0.000 Not Reported Not Reported
04/18/2019 06:28 AM 36.14 35.24 33.80 63.68 31.64 90.0 Not Reported 1.12 W 0.89 W 1.34 W No 0.000 No Precipitation 04/16/2019 09:22 AM 04/16/2019 10:50 AM 0.000 0.000 0.000 0.000 0.000 Not Reported Not Reported
04/18/2019 06:33 AM 36.14 35.24 33.80 63.68 31.64 91.0 Not Reported 0.45 W 0.89 W 1.57 W No 0.000 No Precipitation 04/16/2019 09:22 AM 04/16/2019 10:50 AM 0.000 0.000 0.000 0.000 0.000 Not Reported Not Reported
04/18/2019 06:38 AM 36.14 35.24 33.98 63.68 31.64 91.0 Not Reported 1.34 W 1.57 W 1.57 W No 0.000 No Precipitation 04/16/2019 09:22 AM 04/16/2019 10:50 AM 0.000 0.000 0.000 0.000 0.000 Not Reported Not Reported
04/18/2019 06:43 AM 36.32 35.42 34.16 63.68 31.64 91.0 Not Reported 1.12 W 0.67 W 1.57 W No 0.000 No Precipitation 04/16/2019 09:22 AM 04/16/2019 10:50 AM 0.000 0.000 0.000 0.000 0.000 Not Reported Not Reported
04/18/2019 06:48 AM 36.50 35.42 34.34 63.68 31.64 91.0 Not Reported 1.12 W 0.89 W 1.57 W No 0.000 No Precipitation 04/16/2019 09:22 AM 04/16/2019 10:50 AM 0.000 0.000 0.000 0.000 0.000 Not Reported Not Reported
04/18/2019 06:53 AM 36.68 35.78 34.52 63.68 31.64 91.0 Not Reported 1.12 W 1.34 W 1.57 W No 0.000 No Precipitation 04/16/2019 09:22 AM 04/16/2019 10:50 AM 0.000 0.000 0.000 0.000 0.000 Not Reported Not Reported
04/18/2019 06:58 AM 36.50 35.42 34.16 63.68 31.64 91.0 Not Reported 1.57 W 1.57 W 1.57 W No 0.000 No Precipitation 04/16/2019 09:22 AM 04/16/2019 10:50 AM 0.000 0.000 0.000 0.000 0.000 Not Reported Not Reported
04/18/2019 07:03 AM 36.14 35.24 33.98 63.68 31.64 91.0 Not Reported 1.57 W 2.01 W 1.79 W No 0.000 No Precipitation 04/16/2019 09:22 AM 04/16/2019 10:50 AM 0.000 0.000 0.000 0.000 0.000 Not Reported Not Reported
04/18/2019 07:08 AM 35.96 35.06 33.80 63.68 31.64 91.0 Not Reported 1.79 W 2.01 W 1.79 W No 0.000 No Precipitation 04/16/2019 09:22 AM 04/16/2019 10:50 AM 0.000 0.000 0.000 0.000 0.000 Not Reported Not Reported
04/18/2019 07:13 AM 35.96 35.24 33.80 63.68 31.64 91.0 Not Reported 1.57 W 1.34 W 2.01 W No 0.000 No Precipitation 04/16/2019 09:22 AM 04/16/2019 10:50 AM 0.000 0.000 0.000 0.000 0.000 Not Reported Not Reported
04/18/2019 07:18 AM 36.14 35.24 34.16 63.68 31.64 92.0 Not Reported 1.34 W 1.34 W 2.01 W No 0.000 No Precipitation 04/16/2019 09:22 AM 04/16/2019 10:50 AM 0.000 0.000 0.000 0.000 0.000 Not Reported Not Reported
04/18/2019 07:23 AM 35.96 35.06 33.80 63.68 31.64 92.0 Not Reported 1.12 W 1.12 W 1.57 W No 0.000 No Precipitation 04/16/2019 09:22 AM 04/16/2019 10:50 AM 0.000 0.000 0.000 0.000 0.000 Not Reported Not Reported
04/18/2019 07:28 AM 36.68 35.78 34.88 63.68 31.64 93.0 Not Reported 1.57 W 1.34 W 1.57 W No 0.000 No Precipitation 04/16/2019 09:22 AM 04/16/2019 10:50 AM 0.000 0.000 0.000 0.000 0.000 Not Reported Not Reported
04/18/2019 07:33 AM 36.50 35.60 34.34 63.68 31.64 91.0 Not Reported 1.57 W 1.79 W 1.79 W No 0.000 No Precipitation 04/16/2019 09:22 AM 04/16/2019 10:50 AM 0.000 0.000 0.000 0.000 0.000 Not Reported Not Reported
04/18/2019 07:38 AM 36.68 35.78 34.70 63.68 31.64 92.0 Not Reported 1.79 W 1.79 W 1.79 W No 0.000 No Precipitation 04/16/2019 09:22 AM 04/16/2019 10:50 AM 0.000 0.000 0.000 0.000 0.000 Not Reported Not Reported
04/18/2019 07:43 AM 36.86 35.78 34.88 63.68 31.64 92.0 Not Reported 1.57 W 1.57 W 2.01 W No 0.000 No Precipitation 04/16/2019 09:22 AM 04/16/2019 10:50 AM 0.000 0.000 0.000 0.000 0.000 Not Reported Not Reported
04/18/2019 07:48 AM 36.68 35.60 34.52 63.68 31.64 91.0 Not Reported 1.34 W 1.34 W 2.01 W No 0.000 No Precipitation 04/16/2019 09:22 AM 04/16/2019 10:50 AM 0.000 0.000 0.000 0.000 0.000 Not Reported Not Reported
04/18/2019 07:53 AM 37.04 36.14 34.88 63.68 31.82 91.0 Not Reported 1.57 W 1.79 W 2.01 W No 0.000 No Precipitation 04/16/2019 09:22 AM 04/16/2019 10:50 AM 0.000 0.000 0.000 0.000 0.000 Not Reported Not Reported
04/18/2019 07:58 AM 37.04 36.14 35.06 63.68 32.00 92.0 Not Reported 1.79 W 2.01 W 2.01 W No 0.000 No Precipitation 04/16/2019 09:22 AM 04/16/2019 10:50 AM 0.000 0.000 0.000 0.000 0.000 Not Reported Not Reported
04/18/2019 08:03 AM 37.40 36.50 35.42 63.68 32.00 92.0 Not Reported 2.01 W 1.79 W 2.01 W No 0.000 No Precipitation 04/16/2019 09:22 AM 04/16/2019 10:50 AM 0.000 0.000 0.000 0.000 0.000 Not Reported Not Reported
04/18/2019 08:08 AM 37.58 36.68 35.60 63.68 32.00 92.0 Not Reported 1.79 W 1.79 W 2.01 W No 0.000 No Precipitation 04/16/2019 09:22 AM 04/16/2019 10:50 AM 0.000 0.000 0.000 0.000 0.000 Not Reported Not Reported
04/18/2019 08:13 AM 37.76 36.86 35.78 63.68 32.00 92.0 Not Reported 2.01 W 1.57 W 2.24 W No 0.000 No Precipitation 04/16/2019 09:22 AM 04/16/2019 10:50 AM 0.000 0.000 0.000 0.000 0.000 Not Reported Not Reported
04/18/2019 08:18 AM 38.12 37.40 36.32 63.68 32.36 92.0 Not Reported 1.57 W 1.79 W 2.24 W No 0.000 No Precipitation 04/16/2019 09:22 AM 04/16/2019 10:50 AM 0.000 0.000 0.000 0.000 0.000 Not Reported Not Reported
04/18/2019 08:23 AM 38.66 37.40 36.32 63.68 32.54 91.0 Not Reported 1.79 W 1.79 W 2.01 W No 0.000 No Precipitation 04/16/2019 09:22 AM 04/16/2019 10:50 AM 0.000 0.000 0.000 0.000 0.000 Not Reported Not Reported
04/18/2019 08:28 AM 39.02 37.94 36.68 63.68 33.08 91.0 Not Reported 1.34 W 1.12 W 2.01 W No 0.000 No Precipitation 04/16/2019 09:22 AM 04/16/2019 10:50 AM 0.000 0.000 0.000 0.000 0.000 Not Reported Not Reported
04/18/2019 08:33 AM 39.20 38.30 37.04 63.68 33.26 91.0 Not Reported 1.34 W 0.89 W 2.01 W No 0.000 No Precipitation 04/16/2019 09:22 AM 04/16/2019 10:50 AM 0.000 0.000 0.000 0.000 0.000 Not Reported Not Reported
04/18/2019 08:38 AM 40.10 39.02 37.58 63.68 33.80 90.0 Not Reported 1.12 W 1.12 W 2.01 W No 0.000 No Precipitation 04/16/2019 09:22 AM 04/16/2019 10:50 AM 0.000 0.000 0.000 0.000 0.000 Not Reported Not Reported
04/18/2019 08:43 AM 40.28 39.02 37.58 63.68 33.98 89.0 Not Reported 0.67 W 0.45 W 1.34 W No 0.000 No Precipitation 04/16/2019 09:22 AM 04/16/2019 10:50 AM 0.000 0.000 0.000 0.000 0.000 Not Reported Not Reported
04/18/2019 08:48 AM 40.64 39.20 37.76 63.68 34.52 89.0 Not Reported 1.12 W 1.34 W 1.34 W No 0.000 No Precipitation 04/16/2019 09:22 AM 04/16/2019 10:50 AM 0.000 0.000 0.000 0.000 0.000 Not Reported Not Reported
04/18/2019 08:53 AM 41.00 39.74 38.30 63.68 35.06 89.0 Not Reported 0.67 W 0.00 W 1.34 W No 0.000 No Precipitation 04/16/2019 09:22 AM 04/16/2019 10:50 AM 0.000 0.000 0.000 0.000 0.000 Not Reported Not Reported
04/18/2019 08:58 AM 41.72 40.64 39.38 63.68 35.78 90.0 Not Reported 0.45 W 0.00 NW 1.34 W No 0.000 No Precipitation 04/16/2019 09:22 AM 04/16/2019 10:50 AM 0.000 0.000 0.000 0.000 0.000 Not Reported Not Reported
04/18/2019 09:03 AM 42.44 41.00 39.56 63.68 35.78 89.0 Not Reported 0.00 N 0.00 NW 0.89 W No 0.000 No Precipitation 04/16/2019 09:22 AM 04/16/2019 10:50 AM 0.000 0.000 0.000 0.000 0.000 Not Reported Not Reported
04/18/2019 09:08 AM 43.16 41.54 39.74 63.68 35.78 88.0 Not Reported 0.00 N 0.00 NW 0.89 W No 0.000 No Precipitation 04/16/2019 09:22 AM 04/16/2019 10:50 AM 0.000 0.000 0.000 0.000 0.000 Not Reported Not Reported
04/18/2019 09:13 AM 44.06 42.44 40.64 63.68 35.78 87.0 Not Reported 0.00 NW 0.00 NW 0.00 NW No 0.000 No Precipitation 04/16/2019 09:22 AM 04/16/2019 10:50 AM 0.000 0.000 0.000 0.000 0.000 Not Reported Not Reported
04/18/2019 09:18 AM 44.60 42.62 40.28 63.68 35.78 84.0 Not Reported 0.45 W 0.67 W 0.00 NW No 0.000 No Precipitation 04/16/2019 09:22 AM 04/16/2019 10:50 AM 0.000 0.000 0.000 0.000 0.000 Not Reported Not Reported
04/18/2019 09:23 AM 45.14 42.98 40.64 63.68 35.78 83.0 Not Reported 1.12 SW 1.12 SW 1.12 W No 0.000 No Precipitation 04/16/2019 09:22 AM 04/16/2019 10:50 AM 0.000 0.000 0.000 0.000 0.000 Not Reported Not Reported
04/18/2019 09:28 AM 45.86 43.70 41.36 63.68 35.78 83.0 Not Reported 0.67 SW 0.89 SW 1.12 W No 0.000 No Precipitation 04/16/2019 09:22 AM 04/16/2019 10:50 AM 0.000 0.000 0.000 0.000 0.000 Not Reported Not Reported
04/18/2019 09:33 AM 46.76 44.24 41.72 63.68 35.78 82.0 Not Reported 0.67 W 0.00 W 1.34 SW No 0.000 No Precipitation 04/16/2019 09:22 AM 04/16/2019 10:50 AM 0.000 0.000 0.000 0.000 0.000 Not Reported Not Reported
04/18/2019 09:38 AM 48.74 44.96 41.00 63.68 35.78 74.0 Not Reported 2.01 SW 3.13 SW 1.34 SW No 0.000 No Precipitation 04/16/2019 09:22 AM 04/16/2019 10:50 AM 0.000 0.000 0.000 0.000 0.000 Not Reported Not Reported
04/18/2019 09:43 AM 50.18 46.04 41.90 63.68 35.78 73.0 Not Reported 0.45 W 1.57 SW 3.13 SW No 0.000 No Precipitation 04/16/2019 09:22 AM 04/16/2019 10:50 AM 0.000 0.000 0.000 0.000 0.000 Not Reported Not Reported
04/18/2019 09:48 AM 51.08 46.22 41.36 63.68 35.78 68.0 Not Reported 0.89 W 1.12 W 3.13 SW No 0.000 No Precipitation 04/16/2019 09:22 AM 04/16/2019 10:50 AM 0.000 0.000 0.000 0.000 0.000 Not Reported Not Reported
04/18/2019 09:53 AM 51.98 47.12 42.44 63.68 35.78 70.0 Not Reported 1.57 SW 1.12 SW 2.91 SW No 0.000 No Precipitation 04/16/2019 09:22 AM 04/16/2019 10:50 AM 0.000 0.000 0.000 0.000 0.000 Not Reported Not Reported
04/18/2019 09:58 AM 51.98 46.94 42.26 63.68 35.78 69.0 Not Reported 0.89 SW 1.12 W 2.91 SW No 0.000 No Precipitation 04/16/2019 09:22 AM 04/16/2019 10:50 AM 0.000 0.000 0.000 0.000 0.000 Not Reported Not Reported
04/18/2019 10:03 AM 53.06 46.94 41.00 63.68 35.78 63.0 Not Reported 1.34 SW 0.22 SW 2.24 SW No 0.000 No Precipitation 04/16/2019 09:22 AM 04/16/2019 10:50 AM 0.000 0.000 0.000 0.000 0.000 Not Reported Not Reported
04/18/2019 10:08 AM 54.14 47.84 41.90 63.68 35.78 63.0 Not Reported 0.22 N 0.00 W 2.24 SW No 0.000 No Precipitation 04/16/2019 09:22 AM 04/16/2019 10:50 AM 0.000 0.000 0.000 0.000 0.000 Not Reported Not Reported
04/18/2019 10:13 AM 54.50 48.38 42.26 63.68 35.78 63.0 Not Reported 0.00 N 0.00 NW 1.57 SW No 0.000 No Precipitation 04/16/2019 09:22 AM 04/16/2019 10:50 AM 0.000 0.000 0.000 0.000 0.000 Not Reported Not Reported
04/18/2019 10:18 AM 55.76 48.20 40.82 63.68 35.78 57.0 Not Reported 0.00 E 0.00 E 1.57 SW No 0.000 No Precipitation 04/16/2019 09:22 AM 04/16/2019 10:50 AM 0.000 0.000 0.000 0.000 0.000 Not Reported Not Reported
04/18/2019 10:23 AM 56.84 48.92 41.36 63.68 35.78 55.0 Not Reported 0.67 NE 0.22 E 0.89 NE No 0.000 No Precipitation 04/16/2019 09:22 AM 04/16/2019 10:50 AM 0.000 0.000 0.000 0.000 0.000 Not Reported Not Reported
04/18/2019 10:28 AM 57.74 49.28 41.18 63.68 35.78 53.0 Not Reported 0.00 E 0.00 E 0.89 NE No 0.000 No Precipitation 04/16/2019 09:22 AM 04/16/2019 10:50 AM 0.000 0.000 0.000 0.000 0.000 Not Reported Not Reported
04/18/2019 10:33 AM 58.10 49.46 41.00 63.68 35.78 52.0 Not Reported 0.00 E 0.89 E 1.34 NE No 0.000 No Precipitation 04/16/2019 09:22 AM 04/16/2019 10:50 AM 0.000 0.000 0.000 0.000 0.000 Not Reported Not Reported
04/18/2019 10:38 AM 59.00 50.18 42.08 63.68 35.78 53.0 Not Reported 0.45 E 0.00 W 1.34 NE No 0.000 No Precipitation 04/16/2019 09:22 AM 04/16/2019 10:50 AM 0.000 0.000 0.000 0.000 0.000 Not Reported Not Reported
04/18/2019 10:43 AM 59.72 50.36 41.36 63.68 35.78 50.0 Not Reported 0.89 E 0.00 N 1.12 NW No 0.000 No Precipitation 04/16/2019 09:22 AM 04/16/2019 10:50 AM 0.000 0.000 0.000 0.000 0.000 Not Reported Not Reported
04/18/2019 10:48 AM 60.26 50.36 41.00 63.68 35.78 48.0 Not Reported 1.34 E 2.24 E 1.12 NW No 0.000 No Precipitation 04/16/2019 09:22 AM 04/16/2019 10:50 AM 0.000 0.000 0.000 0.000 0.000 Not Reported Not Reported
04/18/2019 10:53 AM 60.80 50.72 41.36 63.68 35.78 48.0 Not Reported 0.22 E 0.89 NE 2.24 E No 0.000 No Precipitation 04/16/2019 09:22 AM 04/16/2019 10:50 AM 0.000 0.000 0.000 0.000 0.000 Not Reported Not Reported
04/18/2019 10:58 AM 60.98 50.72 41.18 63.68 35.78 47.0 Not Reported 0.89 E 1.79 E 2.24 E No 0.000 No Precipitation 04/16/2019 09:22 AM 04/16/2019 10:50 AM 0.000 0.000 0.000 0.000 0.000 Not Reported Not Reported
04/18/2019 11:03 AM 61.34 50.36 39.56 63.68 35.78 44.0 Not Reported 2.01 E 1.57 E 5.59 E No 0.000 No Precipitation 04/16/2019 09:22 AM 04/16/2019 10:50 AM 0.000 0.000 0.000 0.000 0.000 Not Reported Not Reported
04/18/2019 11:08 AM 61.88 50.36 39.20 63.68 35.78 43.0 Not Reported 1.57 E 2.46 E 5.59 E No 0.000 No Precipitation 04/16/2019 09:22 AM 04/16/2019 10:50 AM 0.000 0.000 0.000 0.000 0.000 Not Reported Not Reported
04/18/2019 11:13 AM 61.70 50.18 39.20 63.68 35.78 43.0 Not Reported 0.45 E 0.22 NE 3.36 E No 0.000 No Precipitation 04/16/2019 09:22 AM 04/16/2019 10:50 AM 0.000 0.000 0.000 0.000 0.000 Not Reported Not Reported
04/18/2019 11:18 AM 62.24 51.26 40.82 63.68 35.78 45.0 Not Reported 0.89 SE 1.34 E 3.36 E No 0.000 No Precipitation 04/16/2019 09:22 AM 04/16/2019 10:50 AM 0.000 0.000 0.000 0.000 0.000 Not Reported Not Reported
04/18/2019 11:23 AM 62.60 51.44 41.00 63.68 35.78 44.0 Not Reported 0.67 E 0.22 SE 3.58 NE No 0.000 No Precipitation 04/16/2019 09:22 AM 04/16/2019 10:50 AM 0.000 0.000 0.000 0.000 0.000 Not Reported Not Reported
04/18/2019 11:28 AM 62.78 51.26 39.74 63.68 35.78 43.0 Not Reported 0.89 SW 1.57 SE 3.58 NE No 0.000 No Precipitation 04/16/2019 09:22 AM 04/16/2019 10:50 AM 0.000 0.000 0.000 0.000 0.000 Not Reported Not Reported
04/18/2019 11:33 AM 63.14 51.26 40.28 63.68 35.78 43.0 Not Reported 0.45 SE 0.89 E 1.57 NE No 0.000 No Precipitation 04/16/2019 09:22 AM 04/16/2019 10:50 AM 0.000 0.000 0.000 0.000 0.000 Not Reported Not Reported
04/18/2019 11:38 AM 63.68 51.26 39.38 63.68 35.78 40.0 Not Reported 1.57 E 0.89 SE 1.57 NE No 0.000 No Precipitation 04/16/2019 09:22 AM 04/16/2019 10:50 AM 0.000 0.000 0.000 0.000 0.000 Not Reported Not Reported
04/18/2019 11:43 AM 64.94 51.98 39.92 64.94 35.78 39.0 Not Reported 0.89 NE 0.67 E 2.24 NE No 0.000 No Precipitation 04/16/2019 09:22 AM 04/16/2019 10:50 AM 0.000 0.000 0.000 0.000 0.000 Not Reported Not Reported
04/18/2019 11:48 AM 64.40 51.26 38.48 65.12 35.78 38.0 Not Reported 2.24 NE 1.12 NE 2.24 NE No 0.000 No Precipitation 04/16/2019 09:22 AM 04/16/2019 10:50 AM 0.000 0.000 0.000 0.000 0.000 Not Reported Not Reported
04/18/2019 11:53 AM 64.94 51.44 38.48 65.12 35.78 37.0 Not Reported 1.34 E 0.45 NE 4.70 NE No 0.000 No Precipitation 04/16/2019 09:22 AM 04/16/2019 10:50 AM 0.000 0.000 0.000 0.000 0.000 Not Reported Not Reported
04/18/2019 11:58 AM 66.20 51.44 36.68 66.20 35.78 33.0 Not Reported 0.67 SE 1.12 SE 4.70 NE No 0.000 No Precipitation 04/16/2019 09:22 AM 04/16/2019 10:50 AM 0.000 0.000 0.000 0.000 0.000 Not Reported Not Reported
04/18/2019 12:03 PM 66.74 52.16 38.30 66.74 35.78 35.0 Not Reported 0.45 NE 0.00 SE 2.68 NE No 0.000 No Precipitation 04/16/2019 09:22 AM 04/16/2019 10:50 AM 0.000 0.000 0.000 0.000 0.000 Not Reported Not Reported
04/18/2019 12:08 PM 66.38 52.34 39.02 66.92 35.78 36.0 Not Reported 1.79 SE 0.67 SW 2.68 NE No 0.000 No Precipitation 04/16/2019 09:22 AM 04/16/2019 10:50 AM 0.000 0.000 0.000 0.000 0.000 Not Reported Not Reported
04/18/2019 12:18 PM 67.82 51.80 35.96 67.82 35.78 30.0 Not Reported 0.00 NW 0.00 N 3.58 E No 0.000 No Precipitation 04/16/2019 09:22 AM 04/16/2019 10:50 AM 0.000 0.000 0.000 0.000 0.000 Not Reported Not Reported
04/18/2019 12:23 PM 68.00 51.98 35.96 68.00 35.78 30.0 Not Reported 0.67 SE 0.45 S 1.57 NE No 0.000 No Precipitation 04/16/2019 09:22 AM 04/16/2019 10:50 AM 0.000 0.000 0.000 0.000 0.000 Not Reported Not Reported
04/18/2019 12:28 PM 68.18 52.34 36.86 68.36 35.78 31.0 Not Reported 0.22 SE 0.67 N 1.57 NE No 0.000 No Precipitation 04/16/2019 09:22 AM 04/16/2019 10:50 AM 0.000 0.000 0.000 0.000 0.000 Not Reported Not Reported
04/18/2019 12:33 PM 66.74 51.62 36.14 68.36 35.78 32.0 Not Reported 2.01 NE 1.12 E 3.80 NE No 0.000 No Precipitation 04/16/2019 09:22 AM 04/16/2019 10:50 AM 0.000 0.000 0.000 0.000 0.000 Not Reported Not Reported
04/18/2019 12:38 PM 67.28 53.06 40.10 68.36 35.78 36.0 Not Reported 0.89 SE 0.00 S 3.80 NE No 0.000 No Precipitation 04/16/2019 09:22 AM 04/16/2019 10:50 AM 0.000 0.000 0.000 0.000 0.000 Not Reported Not Reported
04/18/2019 12:43 PM 67.28 52.16 37.94 68.36 35.78 33.0 Not Reported 0.22 SE 0.00 SE 4.47 NE No 0.000 No Precipitation 04/16/2019 09:22 AM 04/16/2019 10:50 AM 0.000 0.000 0.000 0.000 0.000 Not Reported Not Reported
04/18/2019 12:48 PM 68.90 52.52 36.86 69.08 35.78 30.0 Not Reported 1.79 SE 4.03 E 4.47 NE No 0.000 No Precipitation 04/16/2019 09:22 AM 04/16/2019 10:50 AM 0.000 0.000 0.000 0.000 0.000 Not Reported Not Reported
04/18/2019 12:53 PM 68.18 52.88 38.30 69.08 35.78 33.0 Not Reported 1.12 S 2.24 SE 4.03 E No 0.000 No Precipitation 04/16/2019 09:22 AM 04/16/2019 10:50 AM 0.000 0.000 0.000 0.000 0.000 Not Reported Not Reported
04/18/2019 12:58 PM 68.54 52.52 37.22 69.08 35.78 31.0 Not Reported 1.34 E 3.13 E 4.03 E No 0.000 No Precipitation 04/16/2019 09:22 AM 04/16/2019 10:50 AM 0.000 0.000 0.000 0.000 0.000 Not Reported Not Reported
04/18/2019 01:03 PM 67.28 52.16 37.58 69.08 35.78 33.0 Not Reported 2.68 NE 4.25 SE 3.13 NE No 0.000 No Precipitation 04/16/2019 09:22 AM 04/16/2019 10:50 AM 0.000 0.000 0.000 0.000 0.000 Not Reported Not Reported
04/18/2019 01:08 PM 68.36 53.06 38.66 69.08 35.78 33.0 Not Reported 1.79 E 2.46 E 3.13 NE No 0.000 No Precipitation 04/16/2019 09:22 AM 04/16/2019 10:50 AM 0.000 0.000 0.000 0.000 0.000 Not Reported Not Reported
04/18/2019 01:13 PM 69.08 52.70 36.68 69.08 35.78 30.0 Not Reported 1.12 E 1.57 E 4.25 SE No 0.000 No Precipitation 04/16/2019 09:22 AM 04/16/2019 10:50 AM 0.000 0.000 0.000 0.000 0.000 Not Reported Not Reported
04/18/2019 01:18 PM 68.72 52.88 37.76 69.62 35.78 32.0 Not Reported 2.46 SE 1.57 SE 4.25 SE No 0.000 No Precipitation 04/16/2019 09:22 AM 04/16/2019 10:50 AM 0.000 0.000 0.000 0.000 0.000 Not Reported Not Reported
04/18/2019 01:23 PM 68.72 53.06 38.30 69.62 35.78 32.0 Not Reported 0.89 NE 0.22 W 4.03 E No 0.000 No Precipitation 04/16/2019 09:22 AM 04/16/2019 10:50 AM 0.000 0.000 0.000 0.000 0.000 Not Reported Not Reported
04/18/2019 01:28 PM 69.62 52.88 36.32 69.62 35.78 29.0 Not Reported 2.24 E 2.46 E 4.03 E No 0.000 No Precipitation 04/16/2019 09:22 AM 04/16/2019 10:50 AM 0.000 0.000 0.000 0.000 0.000 Not Reported Not Reported
04/18/2019 01:33 PM 68.90 52.70 36.86 69.62 35.78 30.0 Not Reported 1.79 E 0.67 SE 2.91 SE No 0.000 No Precipitation 04/16/2019 09:22 AM 04/16/2019 10:50 AM 0.000 0.000 0.000 0.000 0.000 Not Reported Not Reported
04/18/2019 01:38 PM 68.36 51.98 35.42 69.62 35.78 29.0 Not Reported 2.91 NE 2.24 NE 2.91 SE No 0.000 No Precipitation 04/16/2019 09:22 AM 04/16/2019 10:50 AM 0.000 0.000 0.000 0.000 0.000 Not Reported Not Reported
04/18/2019 01:43 PM 67.64 51.44 34.70 69.62 35.78 29.0 Not Reported 2.91 E 4.25 SE 4.25 NE No 0.000 No Precipitation 04/16/2019 09:22 AM 04/16/2019 10:50 AM 0.000 0.000 0.000 0.000 0.000 Not Reported Not Reported
04/18/2019 01:48 PM 69.62 53.42 38.30 69.62 35.78 31.0 Not Reported 0.67 S 1.12 N 4.25 NE No 0.000 No Precipitation 04/16/2019 09:22 AM 04/16/2019 10:50 AM 0.000 0.000 0.000 0.000 0.000 Not Reported Not Reported
04/18/2019 01:53 PM 68.90 52.52 36.86 69.98 35.78 30.0 Not Reported 2.01 NE 1.12 NE 5.82 SE No 0.000 No Precipitation 04/16/2019 09:22 AM 04/16/2019 10:50 AM 0.000 0.000 0.000 0.000 0.000 Not Reported Not Reported
04/18/2019 01:58 PM 69.26 52.88 39.20 69.98 35.78 30.0 Not Reported 2.24 SE 1.34 S 5.82 SE No 0.000 No Precipitation 04/16/2019 09:22 AM 04/16/2019 10:50 AM 0.000 0.000 0.000 0.000 0.000 Not Reported Not Reported
04/18/2019 02:03 PM 70.34 53.06 36.32 70.34 35.78 28.0 Not Reported 0.89 SE 1.34 SE 5.59 NE No 0.000 No Precipitation 04/16/2019 09:22 AM 04/16/2019 10:50 AM 0.000 0.000 0.000 0.000 0.000 Not Reported Not Reported
04/18/2019 02:08 PM 69.08 51.62 33.62 70.34 35.78 26.0 Not Reported 3.58 NE 2.46 NE 5.59 NE No 0.000 No Precipitation 04/16/2019 09:22 AM 04/16/2019 10:50 AM 0.000 0.000 0.000 0.000 0.000 Not Reported Not Reported
04/18/2019 02:13 PM 69.08 52.16 35.24 70.34 35.78 28.0 Not Reported 2.46 NE 1.79 SE 4.70 E No 0.000 No Precipitation 04/16/2019 09:22 AM 04/16/2019 10:50 AM 0.000 0.000 0.000 0.000 0.000 Not Reported Not Reported
04/18/2019 02:18 PM 68.72 51.44 33.08 70.34 35.78 26.0 Not Reported 1.34 W 1.79 W 4.70 E No 0.000 No Precipitation 04/16/2019 09:22 AM 04/16/2019 10:50 AM 0.000 0.000 0.000 0.000 0.000 Not Reported Not Reported
04/18/2019 02:23 PM 70.34 53.24 37.04 70.34 35.78 29.0 Not Reported 2.46 E 1.57 S 4.70 SE No 0.000 No Precipitation 04/16/2019 09:22 AM 04/16/2019 10:50 AM 0.000 0.000 0.000 0.000 0.000 Not Reported Not Reported
04/18/2019 02:28 PM 70.52 52.70 34.88 71.06 35.78 26.0 Not Reported 0.45 E 0.45 SE 4.70 SE No 0.000 No Precipitation 04/16/2019 09:22 AM 04/16/2019 10:50 AM 0.000 0.000 0.000 0.000 0.000 Not Reported Not Reported
04/18/2019 02:33 PM 71.06 52.34 33.08 71.24 35.78 25.0 Not Reported 1.57 NE 1.12 N 3.58 E No 0.000 No Precipitation 04/16/2019 09:22 AM 04/16/2019 10:50 AM 0.000 0.000 0.000 0.000 0.000 Not Reported Not Reported
04/18/2019 02:38 PM 70.52 51.98 32.18 71.60 35.78 24.0 Not Reported 2.46 NE 2.91 NE 3.58 E No 0.000 No Precipitation 04/16/2019 09:22 AM 04/16/2019 10:50 AM 0.000 0.000 0.000 0.000 0.000 Not Reported Not Reported
04/18/2019 02:43 PM 71.78 52.70 33.44 71.78 35.78 24.0 Not Reported 2.91 SE 0.45 S 4.25 NE No 0.000 No Precipitation 04/16/2019 09:22 AM 04/16/2019 10:50 AM 0.000 0.000 0.000 0.000 0.000 Not Reported Not Reported
04/18/2019 02:48 PM 71.78 52.16 31.64 71.96 35.78 22.0 Not Reported 1.79 NE 0.00 NE 4.25 NE No 0.000 No Precipitation 04/16/2019 09:22 AM 04/16/2019 10:50 AM 0.000 0.000 0.000 0.000 0.000 Not Reported Not Reported
04/18/2019 02:53 PM 71.42 52.70 33.62 71.96 35.78 24.0 Not Reported 1.79 E 1.79 SW 5.37 NE No 0.000 No Precipitation 04/16/2019 09:22 AM 04/16/2019 10:50 AM 0.000 0.000 0.000 0.000 0.000 Not Reported Not Reported
04/18/2019 02:58 PM 72.14 52.52 32.00 72.14 35.78 22.0 Not Reported 1.34 NE 1.57 NE 5.37 NE No 0.000 No Precipitation 04/16/2019 09:22 AM 04/16/2019 10:50 AM 0.000 0.000 0.000 0.000 0.000 Not Reported Not Reported
04/18/2019 03:03 PM 71.24 52.70 34.16 72.14 35.78 25.0 Not Reported 1.57 NE 0.22 S 2.91 NE No 0.000 No Precipitation 04/16/2019 09:22 AM 04/16/2019 10:50 AM 0.000 0.000 0.000 0.000 0.000 Not Reported Not Reported
04/18/2019 03:08 PM 71.78 53.06 34.34 72.14 35.78 25.0 Not Reported 1.12 E 0.45 NE 2.91 NE No 0.000 No Precipitation 04/16/2019 09:22 AM 04/16/2019 10:50 AM 0.000 0.000 0.000 0.000 0.000 Not Reported Not Reported
04/18/2019 03:13 PM 71.78 52.52 32.72 72.32 35.78 23.0 Not Reported 1.79 E 2.68 NE 2.91 E No 0.000 No Precipitation 04/16/2019 09:22 AM 04/16/2019 10:50 AM 0.000 0.000 0.000 0.000 0.000 Not Reported Not Reported
04/18/2019 03:18 PM 71.24 52.88 34.34 72.32 35.78 25.0 Not Reported 0.67 E 0.89 E 2.91 E No 0.000 No Precipitation 04/16/2019 09:22 AM 04/16/2019 10:50 AM 0.000 0.000 0.000 0.000 0.000 Not Reported Not Reported
04/18/2019 03:23 PM 71.60 52.52 32.54 72.32 35.78 23.0 Not Reported 1.79 NE 1.79 E 4.47 E No 0.000 No Precipitation 04/16/2019 09:22 AM 04/16/2019 10:50 AM 0.000 0.000 0.000 0.000 0.000 Not Reported Not Reported
04/18/2019 03:28 PM 71.42 52.16 32.00 72.32 35.78 23.0 Not Reported 3.36 S 3.36 SW 4.47 E No 0.000 No Precipitation 04/16/2019 09:22 AM 04/16/2019 10:50 AM 0.000 0.000 0.000 0.000 0.000 Not Reported Not Reported
04/18/2019 03:33 PM 71.96 52.70 33.26 72.32 35.78 24.0 Not Reported 3.80 NW 2.01 NE 5.37 S No 0.000 No Precipitation 04/16/2019 09:22 AM 04/16/2019 10:50 AM 0.000 0.000 0.000 0.000 0.000 Not Reported Not Reported
04/18/2019 03:38 PM 72.68 53.24 33.62 72.68 35.78 23.0 Not Reported 2.46 SE 0.89 SE 5.37 S No 0.000 No Precipitation 04/16/2019 09:22 AM 04/16/2019 10:50 AM 0.000 0.000 0.000 0.000 0.000 Not Reported Not Reported
04/18/2019 03:43 PM 72.68 53.24 33.80 73.04 35.78 23.0 Not Reported 2.68 SE 2.01 S 5.59 NW No 0.000 No Precipitation 04/16/2019 09:22 AM 04/16/2019 10:50 AM 0.000 0.000 0.000 0.000 0.000 Not Reported Not Reported
04/18/2019 03:48 PM 72.68 53.24 33.62 73.04 35.78 23.0 Not Reported 0.89 NE 2.46 NE 5.59 NW No 0.000 No Precipitation 04/16/2019 09:22 AM 04/16/2019 10:50 AM 0.000 0.000 0.000 0.000 0.000 Not Reported Not Reported
04/18/2019 03:53 PM 72.50 53.60 34.70 73.04 35.78 24.0 Not Reported 1.57 E 0.22 E 4.47 S No 0.000 No Precipitation 04/16/2019 09:22 AM 04/16/2019 10:50 AM 0.000 0.000 0.000 0.000 0.000 Not Reported Not Reported
04/18/2019 03:58 PM 73.76 54.50 35.96 74.12 35.78 25.0 Not Reported 1.79 E 1.34 SE 4.47 S No 0.000 No Precipitation 04/16/2019 09:22 AM 04/16/2019 10:50 AM 0.000 0.000 0.000 0.000 0.000 Not Reported Not Reported
04/18/2019 04:03 PM 72.86 53.96 35.96 74.12 35.78 26.0 Not Reported 1.34 NW 0.67 NE 3.36 SE No 0.000 No Precipitation 04/16/2019 09:22 AM 04/16/2019 10:50 AM 0.000 0.000 0.000 0.000 0.000 Not Reported Not Reported
04/18/2019 04:08 PM 73.94 54.32 35.60 74.12 35.78 24.0 Not Reported 0.22 NE 0.22 NW 3.36 SE No 0.000 No Precipitation 04/16/2019 09:22 AM 04/16/2019 10:50 AM 0.000 0.000 0.000 0.000 0.000 Not Reported Not Reported
04/18/2019 04:13 PM 74.12 54.50 35.78 74.12 35.78 24.0 Not Reported 2.46 NW 3.13 N 2.46 SE No 0.000 No Precipitation 04/16/2019 09:22 AM 04/16/2019 10:50 AM 0.000 0.000 0.000 0.000 0.000 Not Reported Not Reported
04/18/2019 04:18 PM 73.04 54.50 36.86 74.12 35.78 26.0 Not Reported 3.58 SE 4.70 SE 2.46 SE No 0.000 No Precipitation 04/16/2019 09:22 AM 04/16/2019 10:50 AM 0.000 0.000 0.000 0.000 0.000 Not Reported Not Reported
04/18/2019 04:23 PM 72.50 53.78 35.60 74.12 35.78 25.0 Not Reported 2.01 N 1.34 NW 6.04 NW No 0.000 No Precipitation 04/16/2019 09:22 AM 04/16/2019 10:50 AM 0.000 0.000 0.000 0.000 0.000 Not Reported Not Reported
04/18/2019 04:28 PM 73.58 54.32 35.78 74.12 35.78 25.0 Not Reported 1.12 SE 0.67 S 6.04 NW No 0.000 No Precipitation 04/16/2019 09:22 AM 04/16/2019 10:50 AM 0.000 0.000 0.000 0.000 0.000 Not Reported Not Reported
04/18/2019 04:33 PM 72.86 53.42 34.16 74.12 35.78 24.0 Not Reported 1.57 NE 0.89 NW 3.13 E No 0.000 No Precipitation 04/16/2019 09:22 AM 04/16/2019 10:50 AM 0.000 0.000 0.000 0.000 0.000 Not Reported Not Reported
04/18/2019 04:38 PM 71.60 52.70 33.62 74.12 35.78 24.0 Not Reported 3.58 NW 2.68 NW 3.13 E No 0.000 No Precipitation 04/16/2019 09:22 AM 04/16/2019 10:50 AM 0.000 0.000 0.000 0.000 0.000 Not Reported Not Reported
04/18/2019 04:43 PM 73.76 54.68 36.86 74.12 35.78 25.0 Not Reported 2.24 SW 2.01 SW 4.70 NW No 0.000 No Precipitation 04/16/2019 09:22 AM 04/16/2019 10:50 AM 0.000 0.000 0.000 0.000 0.000 Not Reported Not Reported
04/18/2019 04:48 PM 72.68 53.42 34.34 74.30 35.78 24.0 Not Reported 0.22 N 0.45 N 4.70 NW No 0.000 No Precipitation 04/16/2019 09:22 AM 04/16/2019 10:50 AM 0.000 0.000 0.000 0.000 0.000 Not Reported Not Reported
04/18/2019 04:53 PM 73.40 53.60 33.80 74.30 35.78 23.0 Not Reported 1.57 SW 2.91 W 2.68 SW No 0.000 No Precipitation 04/16/2019 09:22 AM 04/16/2019 10:50 AM 0.000 0.000 0.000 0.000 0.000 Not Reported Not Reported
04/18/2019 04:58 PM 72.50 53.06 33.26 74.30 35.78 23.0 Not Reported 5.14 W 7.16 W 2.68 SW No 0.000 No Precipitation 04/16/2019 09:22 AM 04/16/2019 10:50 AM 0.000 0.000 0.000 0.000 0.000 Not Reported Not Reported
04/18/2019 05:03 PM 73.04 53.24 33.08 74.30 35.78 22.0 Not Reported 2.46 W 5.37 W 7.16 W No 0.000 No Precipitation 04/16/2019 09:22 AM 04/16/2019 10:50 AM 0.000 0.000 0.000 0.000 0.000 Not Reported Not Reported
04/18/2019 05:08 PM 72.50 52.88 32.72 74.30 35.78 23.0 Not Reported 4.25 W 3.13 W 7.16 W No 0.000 No Precipitation 04/16/2019 09:22 AM 04/16/2019 10:50 AM 0.000 0.000 0.000 0.000 0.000 Not Reported Not Reported
04/18/2019 05:13 PM 72.68 53.42 34.52 74.30 35.78 24.0 Not Reported 4.47 W 2.68 W 7.61 W No 0.000 No Precipitation 04/16/2019 09:22 AM 04/16/2019 10:50 AM 0.000 0.000 0.000 0.000 0.000 Not Reported Not Reported
04/18/2019 05:18 PM 73.58 54.68 36.86 74.30 35.78 26.0 Not Reported 2.91 W 1.79 SE 7.61 W No 0.000 No Precipitation 04/16/2019 09:22 AM 04/16/2019 10:50 AM 0.000 0.000 0.000 0.000 0.000 Not Reported Not Reported
04/18/2019 05:23 PM 73.76 54.14 35.42 74.30 35.78 24.0 Not Reported 1.34 S 1.12 S 6.71 W No 0.000 No Precipitation 04/16/2019 09:22 AM 04/16/2019 10:50 AM 0.000 0.000 0.000 0.000 0.000 Not Reported Not Reported
04/18/2019 05:28 PM 73.76 54.32 35.42 74.30 35.78 24.0 Not Reported 2.01 SW 2.46 W 6.71 W No 0.000 No Precipitation 04/16/2019 09:22 AM 04/16/2019 10:50 AM 0.000 0.000 0.000 0.000 0.000 Not Reported Not Reported
04/18/2019 05:33 PM 73.40 53.78 33.80 74.30 35.78 24.0 Not Reported 0.22 NE 1.12 N 3.80 SW No 0.000 No Precipitation 04/16/2019 09:22 AM 04/16/2019 10:50 AM 0.000 0.000 0.000 0.000 0.000 Not Reported Not Reported
04/18/2019 05:38 PM 73.40 54.50 36.50 74.30 35.78 25.0 Not Reported 1.12 W 1.34 N 3.80 SW No 0.000 No Precipitation 04/16/2019 09:22 AM 04/16/2019 10:50 AM 0.000 0.000 0.000 0.000 0.000 Not Reported Not Reported
04/18/2019 05:43 PM 72.86 54.14 35.78 74.30 35.78 25.0 Not Reported 3.36 W 5.37 SW 5.14 W No 0.000 No Precipitation 04/16/2019 09:22 AM 04/16/2019 10:50 AM 0.000 0.000 0.000 0.000 0.000 Not Reported Not Reported
04/18/2019 05:48 PM 72.50 53.78 35.42 74.30 35.78 25.0 Not Reported 3.36 W 0.89 N 5.14 W No 0.000 No Precipitation 04/16/2019 09:22 AM 04/16/2019 10:50 AM 0.000 0.000 0.000 0.000 0.000 Not Reported Not Reported
04/18/2019 05:53 PM 73.22 54.86 38.30 74.30 35.78 28.0 Not Reported 2.46 SW 2.24 S 6.04 SW No 0.000 No Precipitation 04/16/2019 09:22 AM 04/16/2019 10:50 AM 0.000 0.000 0.000 0.000 0.000 Not Reported Not Reported
04/18/2019 05:58 PM 73.58 54.68 36.86 74.30 35.78 26.0 Not Reported 0.22 SW 0.45 NW 6.04 SW No 0.000 No Precipitation 04/16/2019 09:22 AM 04/16/2019 10:50 AM 0.000 0.000 0.000 0.000 0.000 Not Reported Not Reported
04/18/2019 06:03 PM 72.86 53.96 35.60 74.30 35.78 25.0 Not Reported 4.03 SW 3.80 SW 3.58 SW No 0.000 No Precipitation 04/16/2019 09:22 AM 04/16/2019 10:50 AM 0.000 0.000 0.000 0.000 0.000 Not Reported Not Reported
04/18/2019 06:08 PM 72.86 53.96 35.78 74.30 35.78 25.0 Not Reported 2.68 W 3.58 W 3.58 SW No 0.000 No Precipitation 04/16/2019 09:22 AM 04/16/2019 10:50 AM 0.000 0.000 0.000 0.000 0.000 Not Reported Not Reported
04/18/2019 06:13 PM 74.48 55.04 37.04 74.48 35.78 25.0 Not Reported 0.00 SE 0.89 W 6.26 SW No 0.000 No Precipitation 04/16/2019 09:22 AM 04/16/2019 10:50 AM 0.000 0.000 0.000 0.000 0.000 Not Reported Not Reported
04/18/2019 06:18 PM 73.22 54.50 36.86 74.48 35.78 26.0 Not Reported 0.45 NE 0.67 NW 6.26 SW No 0.000 No Precipitation 04/16/2019 09:22 AM 04/16/2019 10:50 AM 0.000 0.000 0.000 0.000 0.000 Not Reported Not Reported
04/18/2019 06:23 PM 72.86 54.50 37.22 74.48 35.78 27.0 Not Reported 1.34 NW 3.13 W 4.03 S No 0.000 No Precipitation 04/16/2019 09:22 AM 04/16/2019 10:50 AM 0.000 0.000 0.000 0.000 0.000 Not Reported Not Reported
04/18/2019 06:28 PM 73.40 54.50 36.86 74.48 35.78 26.0 Not Reported 0.22 N 0.67 N 4.03 S No 0.000 No Precipitation 04/16/2019 09:22 AM 04/16/2019 10:50 AM 0.000 0.000 0.000 0.000 0.000 Not Reported Not Reported
04/18/2019 06:33 PM 72.14 53.78 35.96 74.48 35.78 26.0 Not Reported 3.13 W 3.13 NW 3.13 W No 0.000 No Precipitation 04/16/2019 09:22 AM 04/16/2019 10:50 AM 0.000 0.000 0.000 0.000 0.000 Not Reported Not Reported
04/18/2019 06:38 PM 71.96 53.96 37.04 74.48 35.78 27.0 Not Reported 3.58 W 3.36 SW 3.13 W No 0.000 No Precipitation 04/16/2019 09:22 AM 04/16/2019 10:50 AM 0.000 0.000 0.000 0.000 0.000 Not Reported Not Reported
04/18/2019 06:43 PM 71.24 54.14 38.48 74.48 35.78 30.0 Not Reported 2.24 W 2.91 W 6.93 NW No 0.000 No Precipitation 04/16/2019 09:22 AM 04/16/2019 10:50 AM 0.000 0.000 0.000 0.000 0.000 Not Reported Not Reported
04/18/2019 06:48 PM 70.52 53.96 38.66 74.48 35.78 31.0 Not Reported 2.91 NW 3.80 W 6.93 NW No 0.000 No Precipitation 04/16/2019 09:22 AM 04/16/2019 10:50 AM 0.000 0.000 0.000 0.000 0.000 Not Reported Not Reported
04/18/2019 06:53 PM 71.24 53.60 36.86 74.48 35.78 28.0 Not Reported 1.57 SW 5.14 S 3.80 NW No 0.000 No Precipitation 04/16/2019 09:22 AM 04/16/2019 10:50 AM 0.000 0.000 0.000 0.000 0.000 Not Reported Not Reported
04/18/2019 06:58 PM 71.60 54.32 38.30 74.48 35.78 29.0 Not Reported 0.45 N 0.89 NW 3.80 NW No 0.000 No Precipitation 04/16/2019 09:22 AM 04/16/2019 10:50 AM 0.000 0.000 0.000 0.000 0.000 Not Reported Not Reported
04/18/2019 07:03 PM 70.16 54.32 40.10 74.48 35.78 33.0 Not Reported 2.24 NW 1.57 W 5.14 S No 0.000 No Precipitation 04/16/2019 09:22 AM 04/16/2019 10:50 AM 0.000 0.000 0.000 0.000 0.000 Not Reported Not Reported
04/18/2019 07:08 PM 70.16 53.60 38.30 74.48 35.78 31.0 Not Reported 2.68 W 2.01 NW 5.14 S No 0.000 No Precipitation 04/16/2019 09:22 AM 04/16/2019 10:50 AM 0.000 0.000 0.000 0.000 0.000 Not Reported Not Reported
04/18/2019 07:13 PM 71.24 54.32 38.84 74.48 35.78 30.0 Not Reported 3.80 W 2.24 S 5.14 SW No 0.000 No Precipitation 04/16/2019 09:22 AM 04/16/2019 10:50 AM 0.000 0.000 0.000 0.000 0.000 Not Reported Not Reported
04/18/2019 07:18 PM 70.16 53.24 37.04 74.48 35.78 29.0 Not Reported 2.91 W 2.68 W 5.14 SW No 0.000 No Precipitation 04/16/2019 09:22 AM 04/16/2019 10:50 AM 0.000 0.000 0.000 0.000 0.000 Not Reported Not Reported
04/18/2019 07:23 PM 69.26 53.06 37.76 74.48 35.78 31.0 Not Reported 2.46 NW 3.80 NW 4.70 SW No 0.000 No Precipitation 04/16/2019 09:22 AM 04/16/2019 10:50 AM 0.000 0.000 0.000 0.000 0.000 Not Reported Not Reported
04/18/2019 07:28 PM 68.18 52.52 37.40 74.48 35.78 32.0 Not Reported 2.91 W 1.79 W 4.70 SW No 0.000 No Precipitation 04/16/2019 09:22 AM 04/16/2019 10:50 AM 0.000 0.000 0.000 0.000 0.000 Not Reported Not Reported
04/18/2019 07:33 PM 68.72 53.42 39.56 74.48 35.78 34.0 Not Reported 2.91 SW 1.12 W 4.47 W No 0.000 No Precipitation 04/16/2019 09:22 AM 04/16/2019 10:50 AM 0.000 0.000 0.000 0.000 0.000 Not Reported Not Reported
04/18/2019 07:38 PM 66.38 52.16 38.66 74.48 35.78 35.0 Not Reported 1.57 SW 1.12 W 4.47 W No 0.000 No Precipitation 04/16/2019 09:22 AM 04/16/2019 10:50 AM 0.000 0.000 0.000 0.000 0.000 Not Reported Not Reported
04/18/2019 07:43 PM 66.02 52.88 41.18 74.48 35.78 40.0 Not Reported 1.79 W 2.01 W 4.03 SW No 0.000 No Precipitation 04/16/2019 09:22 AM 04/16/2019 10:50 AM 0.000 0.000 0.000 0.000 0.000 Not Reported Not Reported
04/18/2019 07:48 PM 65.30 53.24 42.80 74.48 35.78 43.0 Not Reported 1.79 W 1.12 NW 4.03 SW No 0.000 No Precipitation 04/16/2019 09:22 AM 04/16/2019 10:50 AM 0.000 0.000 0.000 0.000 0.000 Not Reported Not Reported
04/18/2019 07:53 PM 63.14 51.44 40.46 74.48 35.78 43.0 Not Reported 2.24 W 0.67 W 2.91 NW No 0.000 No Precipitation 04/16/2019 09:22 AM 04/16/2019 10:50 AM 0.000 0.000 0.000 0.000 0.000 Not Reported Not Reported
04/18/2019 07:58 PM 62.24 51.44 41.36 74.48 35.78 46.0 Not Reported 2.01 NW 2.01 NW 2.91 NW No 0.000 No Precipitation 04/16/2019 09:22 AM 04/16/2019 10:50 AM 0.000 0.000 0.000 0.000 0.000 Not Reported Not Reported
04/18/2019 08:03 PM 60.98 50.54 40.28 74.48 35.78 46.0 Not Reported 1.12 NW 1.34 W 3.36 W No 0.000 No Precipitation 04/16/2019 09:22 AM 04/16/2019 10:50 AM 0.000 0.000 0.000 0.000 0.000 Not Reported Not Reported
04/18/2019 08:08 PM 58.28 49.82 41.90 74.48 35.78 54.0 Not Reported 0.89 W 0.89 W 3.36 W No 0.000 No Precipitation 04/16/2019 09:22 AM 04/16/2019 10:50 AM 0.000 0.000 0.000 0.000 0.000 Not Reported Not Reported
04/18/2019 08:13 PM 56.48 48.74 41.00 74.48 35.78 55.0 Not Reported 1.12 NW 1.57 NW 1.57 NW No 0.000 No Precipitation 04/16/2019 09:22 AM 04/16/2019 10:50 AM 0.000 0.000 0.000 0.000 0.000 Not Reported Not Reported
04/18/2019 08:18 PM 55.76 48.20 40.64 74.48 35.78 56.0 Not Reported 0.67 W 0.22 NW 1.57 NW No 0.000 No Precipitation 04/16/2019 09:22 AM 04/16/2019 10:50 AM 0.000 0.000 0.000 0.000 0.000 Not Reported Not Reported
04/18/2019 08:23 PM 55.22 48.02 40.82 74.48 35.78 58.0 Not Reported 1.57 W 0.67 W 2.46 W No 0.000 No Precipitation 04/16/2019 09:22 AM 04/16/2019 10:50 AM 0.000 0.000 0.000 0.000 0.000 Not Reported Not Reported
04/18/2019 08:28 PM 52.88 46.76 40.82 74.48 35.78 63.0 Not Reported 2.01 NW 2.01 W 2.46 W No 0.000 No Precipitation 04/16/2019 09:22 AM 04/16/2019 10:50 AM 0.000 0.000 0.000 0.000 0.000 Not Reported Not Reported
04/18/2019 08:33 PM 52.70 46.94 41.18 74.48 35.78 64.0 Not Reported 2.68 NW 1.12 W 2.68 NW No 0.000 No Precipitation 04/16/2019 09:22 AM 04/16/2019 10:50 AM 0.000 0.000 0.000 0.000 0.000 Not Reported Not Reported
04/18/2019 08:38 PM 52.88 46.94 41.00 74.48 35.78 63.0 Not Reported 1.34 NW 1.34 NW 2.68 NW No 0.000 No Precipitation 04/16/2019 09:22 AM 04/16/2019 10:50 AM 0.000 0.000 0.000 0.000 0.000 Not Reported Not Reported
04/18/2019 08:43 PM 52.16 45.86 39.20 74.48 35.78 61.0 Not Reported 1.79 NW 0.67 NW 2.91 NW No 0.000 No Precipitation 04/16/2019 09:22 AM 04/16/2019 10:50 AM 0.000 0.000 0.000 0.000 0.000 Not Reported Not Reported
04/18/2019 08:48 PM 50.90 45.32 39.74 74.48 35.78 65.0 Not Reported 1.34 W 0.67 SW 2.91 NW No 0.000 No Precipitation 04/16/2019 09:22 AM 04/16/2019 10:50 AM 0.000 0.000 0.000 0.000 0.000 Not Reported Not Reported
04/18/2019 08:53 PM 50.00 44.78 39.20 74.48 35.78 66.0 Not Reported 1.12 NW 1.34 NW 2.68 NW No 0.000 No Precipitation 04/16/2019 09:22 AM 04/16/2019 10:50 AM 0.000 0.000 0.000 0.000 0.000 Not Reported Not Reported
04/18/2019 08:58 PM 49.10 44.24 39.02 74.48 35.78 67.0 Not Reported 2.24 W 3.58 W 2.68 NW No 0.000 No Precipitation 04/16/2019 09:22 AM 04/16/2019 10:50 AM 0.000 0.000 0.000 0.000 0.000 Not Reported Not Reported
04/18/2019 09:03 PM 48.02 42.98 37.22 74.48 35.78 66.0 Not Reported 2.01 W 2.68 NW 3.58 W No 0.000 No Precipitation 04/16/2019 09:22 AM 04/16/2019 10:50 AM 0.000 0.000 0.000 0.000 0.000 Not Reported Not Reported
04/18/2019 09:08 PM 47.66 42.98 37.76 74.48 35.78 68.0 Not Reported 2.46 W 1.79 W 3.58 W No 0.000 No Precipitation 04/16/2019 09:22 AM 04/16/2019 10:50 AM 0.000 0.000 0.000 0.000 0.000 Not Reported Not Reported
04/18/2019 09:13 PM 47.30 42.80 37.76 74.48 35.78 69.0 Not Reported 2.46 W 2.01 W 3.13 W No 0.000 No Precipitation 04/16/2019 09:22 AM 04/16/2019 10:50 AM 0.000 0.000 0.000 0.000 0.000 Not Reported Not Reported
04/18/2019 09:18 PM 47.48 43.16 38.30 74.48 35.78 70.0 Not Reported 2.01 NW 1.57 NW 3.13 W No 0.000 No Precipitation 04/16/2019 09:22 AM 04/16/2019 10:50 AM 0.000 0.000 0.000 0.000 0.000 Not Reported Not Reported
04/18/2019 09:23 PM 47.30 42.62 37.22 74.48 35.78 67.0 Not Reported 2.24 W 1.79 NW 3.58 NW No 0.000 No Precipitation 04/16/2019 09:22 AM 04/16/2019 10:50 AM 0.000 0.000 0.000 0.000 0.000 Not Reported Not Reported
04/18/2019 09:28 PM 47.84 43.34 38.48 74.48 35.78 69.0 Not Reported 1.12 NW 1.12 NW 3.58 NW No 0.000 No Precipitation 04/16/2019 09:22 AM 04/16/2019 10:50 AM 0.000 0.000 0.000 0.000 0.000 Not Reported Not Reported
04/18/2019 09:33 PM 46.76 42.62 37.94 74.48 35.78 71.0 Not Reported 1.57 NW 1.34 SW 2.68 W No 0.000 No Precipitation 04/16/2019 09:22 AM 04/16/2019 10:50 AM 0.000 0.000 0.000 0.000 0.000 Not Reported Not Reported
04/18/2019 09:38 PM 46.58 42.44 37.76 74.48 35.78 71.0 Not Reported 1.12 W 1.34 W 2.68 W No 0.000 No Precipitation 04/16/2019 09:22 AM 04/16/2019 10:50 AM 0.000 0.000 0.000 0.000 0.000 Not Reported Not Reported
04/18/2019 09:43 PM 46.22 42.26 37.58 74.48 35.78 71.0 Not Reported 1.34 NW 0.22 W 2.24 NW No 0.000 No Precipitation 04/16/2019 09:22 AM 04/16/2019 10:50 AM 0.000 0.000 0.000 0.000 0.000 Not Reported Not Reported
04/18/2019 09:48 PM 46.04 41.90 37.22 74.48 35.78 71.0 Not Reported 0.45 W 0.00 W 2.24 NW No 0.000 No Precipitation 04/16/2019 09:22 AM 04/16/2019 10:50 AM 0.000 0.000 0.000 0.000 0.000 Not Reported Not Reported
04/18/2019 09:53 PM 45.86 42.44 38.48 74.48 35.78 74.0 Not Reported 0.45 W 0.89 W 2.01 N No 0.000 No Precipitation 04/16/2019 09:22 AM 04/16/2019 10:50 AM 0.000 0.000 0.000 0.000 0.000 Not Reported Not Reported
04/18/2019 09:58 PM 45.50 41.90 37.76 74.48 35.78 74.0 Not Reported 0.67 SW 0.67 SW 2.01 N No 0.000 No Precipitation 04/16/2019 09:22 AM 04/16/2019 10:50 AM 0.000 0.000 0.000 0.000 0.000 Not Reported Not Reported
04/18/2019 10:03 PM 44.78 41.36 37.22 74.48 35.78 74.0 Not Reported 0.00 SW 0.00 W 2.01 SW No 0.000 No Precipitation 04/16/2019 09:22 AM 04/16/2019 10:50 AM 0.000 0.000 0.000 0.000 0.000 Not Reported Not Reported
04/18/2019 10:08 PM 44.42 41.36 37.58 74.48 35.78 76.0 Not Reported 0.89 W 1.79 SW 2.01 SW No 0.000 No Precipitation 04/16/2019 09:22 AM 04/16/2019 10:50 AM 0.000 0.000 0.000 0.000 0.000 Not Reported Not Reported
04/18/2019 10:13 PM 44.06 41.00 37.22 74.48 35.78 76.0 Not Reported 0.22 W 1.79 W 1.79 SW No 0.000 No Precipitation 04/16/2019 09:22 AM 04/16/2019 10:50 AM 0.000 0.000 0.000 0.000 0.000 Not Reported Not Reported
04/18/2019 10:18 PM 44.60 41.54 37.94 74.48 35.78 77.0 Not Reported 0.45 N 0.89 NW 1.79 SW No 0.000 No Precipitation 04/16/2019 09:22 AM 04/16/2019 10:50 AM 0.000 0.000 0.000 0.000 0.000 Not Reported Not Reported
04/18/2019 10:23 PM 45.68 41.72 37.58 74.48 35.78 73.0 Not Reported 1.79 NW 0.00 NE 2.91 W No 0.000 No Precipitation 04/16/2019 09:22 AM 04/16/2019 10:50 AM 0.000 0.000 0.000 0.000 0.000 Not Reported Not Reported
04/18/2019 10:28 PM 44.96 41.36 37.40 74.48 35.78 74.0 Not Reported 1.57 W 1.34 NW 2.91 W No 0.000 No Precipitation 04/16/2019 09:22 AM 04/16/2019 10:50 AM 0.000 0.000 0.000 0.000 0.000 Not Reported Not Reported
04/18/2019 10:33 PM 45.32 41.54 37.04 74.48 35.78 72.0 Not Reported 1.79 W 1.79 SW 2.68 W No 0.000 No Precipitation 04/16/2019 09:22 AM 04/16/2019 10:50 AM 0.000 0.000 0.000 0.000 0.000 Not Reported Not Reported
04/18/2019 10:38 PM 44.96 42.08 38.48 74.48 35.78 77.0 Not Reported 1.12 NW 2.24 N 2.68 W No 0.000 No Precipitation 04/16/2019 09:22 AM 04/16/2019 10:50 AM 0.000 0.000 0.000 0.000 0.000 Not Reported Not Reported
04/18/2019 10:43 PM 45.14 41.36 37.04 74.48 35.78 73.0 Not Reported 0.45 W 1.34 W 2.46 NW No 0.000 No Precipitation 04/16/2019 09:22 AM 04/16/2019 10:50 AM 0.000 0.000 0.000 0.000 0.000 Not Reported Not Reported
04/18/2019 10:48 PM 43.88 40.46 36.50 74.48 35.78 75.0 Not Reported 0.00 W 0.22 W 2.46 NW No 0.000 No Precipitation 04/16/2019 09:22 AM 04/16/2019 10:50 AM 0.000 0.000 0.000 0.000 0.000 Not Reported Not Reported
04/18/2019 10:53 PM 43.34 40.46 36.86 74.48 35.78 77.0 Not Reported 0.89 W 0.00 W 1.34 W No 0.000 No Precipitation 04/16/2019 09:22 AM 04/16/2019 10:50 AM 0.000 0.000 0.000 0.000 0.000 Not Reported Not Reported
04/18/2019 10:58 PM 44.60 41.00 36.86 74.48 35.78 74.0 Not Reported 0.45 W 0.45 W 1.34 W No 0.000 No Precipitation 04/16/2019 09:22 AM 04/16/2019 10:50 AM 0.000 0.000 0.000 0.000 0.000 Not Reported Not Reported
04/18/2019 11:03 PM 42.80 39.56 35.60 74.48 35.78 75.0 Not Reported 0.22 W 1.12 W 1.12 W No 0.000 No Precipitation 04/16/2019 09:22 AM 04/16/2019 10:50 AM 0.000 0.000 0.000 0.000 0.000 Not Reported Not Reported
04/18/2019 11:08 PM 42.80 39.92 36.32 74.48 35.78 77.0 Not Reported 0.45 NW 0.22 NW 1.12 W No 0.000 No Precipitation 04/16/2019 09:22 AM 04/16/2019 10:50 AM 0.000 0.000 0.000 0.000 0.000 Not Reported Not Reported
04/18/2019 11:13 PM 42.98 40.10 36.68 74.48 35.78 78.0 Not Reported 0.89 W 0.89 W 1.57 W No 0.000 No Precipitation 04/16/2019 09:22 AM 04/16/2019 10:50 AM 0.000 0.000 0.000 0.000 0.000 Not Reported Not Reported
04/18/2019 11:18 PM 42.62 39.38 35.42 74.48 35.78 75.0 Not Reported 0.22 NW 0.67 NW 1.57 W No 0.000 No Precipitation 04/16/2019 09:22 AM 04/16/2019 10:50 AM 0.000 0.000 0.000 0.000 0.000 Not Reported Not Reported
04/18/2019 11:23 PM 42.08 39.20 35.42 74.48 35.78 77.0 Not Reported 0.00 N 0.22 NW 1.34 W No 0.000 No Precipitation 04/16/2019 09:22 AM 04/16/2019 10:50 AM 0.000 0.000 0.000 0.000 0.000 Not Reported Not Reported
04/18/2019 11:28 PM 42.26 39.38 35.78 74.48 35.78 77.0 Not Reported 0.45 N 0.89 N 1.34 W No 0.000 No Precipitation 04/16/2019 09:22 AM 04/16/2019 10:50 AM 0.000 0.000 0.000 0.000 0.000 Not Reported Not Reported
04/18/2019 11:33 PM 41.90 39.20 35.78 74.48 35.78 78.0 Not Reported 0.22 NW 0.00 NW 1.34 SW No 0.000 No Precipitation 04/16/2019 09:22 AM 04/16/2019 10:50 AM 0.000 0.000 0.000 0.000 0.000 Not Reported Not Reported
04/18/2019 11:38 PM 41.90 39.02 35.60 74.48 35.78 77.0 Not Reported 1.12 W 1.79 W 1.34 SW No 0.000 No Precipitation 04/16/2019 09:22 AM 04/16/2019 10:50 AM 0.000 0.000 0.000 0.000 0.000 Not Reported Not Reported
04/18/2019 11:43 PM 41.36 38.30 35.42 74.48 35.78 79.0 Not Reported 1.34 NW 0.00 SW 1.79 W No 0.000 No Precipitation 04/16/2019 09:22 AM 04/16/2019 10:50 AM 0.000 0.000 0.000 0.000 0.000 Not Reported Not Reported
04/18/2019 11:48 PM 41.72 39.02 35.60 74.48 35.78 78.0 Not Reported 1.12 W 1.34 SW 1.79 W No 0.000 No Precipitation 04/16/2019 09:22 AM 04/16/2019 10:50 AM 0.000 0.000 0.000 0.000 0.000 Not Reported Not Reported
04/18/2019 11:53 PM 41.18 38.30 34.70 74.48 35.78 77.0 Not Reported 0.67 W 1.34 W 2.24 W No 0.000 No Precipitation 04/16/2019 09:22 AM 04/16/2019 10:50 AM 0.000 0.000 0.000 0.000 0.000 Not Reported Not Reported
04/18/2019 11:58 PM 41.00 38.12 34.34 74.48 35.78 76.0 Not Reported 0.89 W 0.22 W 2.24 W No 0.000 No Precipitation 04/16/2019 09:22 AM 04/16/2019 10:50 AM 0.000 0.000 0.000 0.000 0.000 Not Reported Not Reported